Time;durP1;ratioP1;P1;durP2;ratioP2;P2;SDS_P1;SDS_P2;PMS_P1;PMS_P2;Temp;Humidity;BMP_temperature;BMP_pressure;BME280_temperature;BME280_humidity;BME280_pressure;Samples;Min_cycle;Max_cycle;Signal;HPM_P1;HPM_P2
2022/08/15 00:00:41;;;;;;;;;;;;;;;20.63;100.00;97822.91;5076515;28;19932;-80
2022/08/15 00:03:22;;;;;;;;;;;;;;;20.73;100.00;97821.34;5094246;28;19924;-81
2022/08/15 00:05:50;;;;;;;;;;;;;;;20.51;100.00;97825.00;5094256;28;20019;-81
2022/08/15 00:08:18;;;;;;;;;;;;;;;20.48;100.00;97828.09;5094721;28;19932;-81
2022/08/15 00:10:45;;;;;;;;;;;;;;;20.03;100.00;97824.53;5094389;28;19923;-81
2022/08/15 00:13:15;;;;;;;;;;;;;;;20.22;100.00;97821.97;5093420;28;19924;-81
2022/08/15 00:15:42;;;;;;;;;;;;;;;19.44;100.00;97827.63;5093374;28;20329;-81
2022/08/15 00:18:09;;;;;;;;;;;;;;;20.10;100.00;97823.25;5093396;28;19928;-81
2022/08/15 00:20:37;;;;;;;;;;;;;;;20.28;100.00;97819.91;5094091;28;20015;-81
2022/08/15 00:23:07;;;;;;;;;;;;;;;20.39;100.00;97814.19;5094263;28;19925;-81
2022/08/15 00:25:37;;;;;;;;;;;;;;;20.23;100.00;97824.31;5093211;28;19924;-81
2022/08/15 00:28:08;;;;;;;;;;;;;;;20.08;100.00;97806.75;5092220;28;19931;-81
2022/08/15 00:30:36;;;;;;;;;;;;;;;20.03;100.00;97816.03;5092435;28;19977;-81
2022/08/15 00:33:04;;;;;;;;;;;;;;;19.83;100.00;97812.72;5092024;28;19924;-81
2022/08/15 00:35:39;;;;;;;;;;;;;;;20.17;100.00;97806.53;5075369;28;19931;-81
2022/08/15 00:38:08;;;;;;;;;;;;;;;20.33;100.00;97804.91;5092739;28;19946;-81
2022/08/15 00:43:22;;;;;;;;;;;;;;;20.46;100.00;97796.66;5092289;28;20360;-81
2022/08/15 00:45:50;;;;;;;;;;;;;;;20.41;100.00;97791.75;5059017;28;19977;-81
2022/08/15 00:51:04;;;;;;;;;;;;;;;20.41;100.00;97789.72;5092872;28;20279;-81
2022/08/15 00:53:32;;;;;;;;;;;;;;;20.35;100.00;97794.63;5093323;28;20355;-81
2022/08/15 00:55:59;;;;;;;;;;;;;;;19.90;100.00;97783.84;5092948;28;19928;-81
2022/08/15 00:58:26;;;;;;;;;;;;;;;20.36;100.00;97781.19;5076295;28;20402;-82
2022/08/15 01:00:54;;;;;;;;;;;;;;;19.98;100.00;97787.69;5076233;28;19947;-81
2022/08/15 01:03:24;;;;;;;;;;;;;;;20.33;100.00;97776.56;5075999;28;19928;-81
2022/08/15 01:05:53;;;;;;;;;;;;;;;20.51;100.00;97790.19;5092777;28;19990;-81
2022/08/15 01:08:22;;;;;;;;;;;;;;;20.62;100.00;97775.97;5092831;28;20027;-81
2022/08/15 01:10:50;;;;;;;;;;;;;;;20.61;100.00;97772.38;5092818;28;20402;-81
2022/08/15 01:13:17;;;;;;;;;;;;;;;20.54;100.00;97775.72;5109948;28;20117;-82
2022/08/15 01:15:45;;;;;;;;;;;;;;;20.04;100.00;97777.88;5095692;28;19924;-82
2022/08/15 01:18:12;;;;;;;;;;;;;;;20.41;100.00;97766.22;5096482;28;19924;-81
2022/08/15 01:20:40;;;;;;;;;;;;;;;20.30;100.00;97771.94;5113193;28;20035;-81
2022/08/15 01:23:11;;;;;;;;;;;;;;;19.84;100.00;97777.41;5096333;28;19924;-81
2022/08/15 01:25:44;;;;;;;;;;;;;;;20.46;100.00;97773.97;5096435;28;19956;-81
2022/08/15 01:28:17;;;;;;;;;;;;;;;19.97;100.00;97777.63;5096554;28;19924;-82
2022/08/15 01:30:49;;;;;;;;;;;;;;;20.16;100.00;97773.00;5096472;28;19928;-81
2022/08/15 01:33:17;;;;;;;;;;;;;;;20.50;100.00;97768.78;5079206;28;19924;-81
2022/08/15 01:35:46;;;;;;;;;;;;;;;20.56;100.00;97756.13;5079557;28;19924;-82
2022/08/15 01:38:19;;;;;;;;;;;;;;;20.29;100.00;97764.72;5096374;28;19973;-81
2022/08/15 01:41:05;;;;;;;;;;;;;;;20.60;100.00;97764.38;5096015;28;19974;-81
2022/08/15 01:43:36;;;;;;;;;;;;;;;20.05;100.00;97758.81;5096271;28;19924;-81
2022/08/15 01:46:07;;;;;;;;;;;;;;;20.47;100.00;97753.59;5096381;28;19927;-82
2022/08/15 01:48:41;;;;;;;;;;;;;;;20.65;100.00;97761.50;5096528;28;19924;-81
2022/08/15 01:51:10;;;;;;;;;;;;;;;20.80;100.00;97749.81;5096402;28;19928;-81
2022/08/15 01:53:43;;;;;;;;;;;;;;;20.71;100.00;97750.13;5095960;28;19924;-81
2022/08/15 01:56:18;;;;;;;;;;;;;;;20.33;100.00;97743.31;5095890;28;19931;-82
2022/08/15 01:58:46;;;;;;;;;;;;;;;20.18;100.00;97748.50;5079327;28;20291;-81
2022/08/15 02:01:15;;;;;;;;;;;;;;;19.50;100.00;97749.09;5078656;28;19924;-81
2022/08/15 02:03:43;;;;;;;;;;;;;;;19.99;100.00;97758.06;5129638;27;19924;-82
2022/08/15 02:06:12;;;;;;;;;;;;;;;20.19;100.00;97746.44;5096964;28;19928;-81
2022/08/15 02:08:41;;;;;;;;;;;;;;;20.11;100.00;97749.03;5095710;28;19924;-81
2022/08/15 02:11:11;;;;;;;;;;;;;;;20.49;100.00;97750.22;5079099;28;20031;-81
2022/08/15 02:13:41;;;;;;;;;;;;;;;20.74;100.00;97749.84;5095712;28;20021;-82
2022/08/15 02:16:09;;;;;;;;;;;;;;;20.79;100.00;97748.28;5078748;28;19989;-82
2022/08/15 02:18:36;;;;;;;;;;;;;;;20.37;100.00;97743.03;5096494;28;19924;-81
2022/08/15 02:21:04;;;;;;;;;;;;;;;19.58;100.00;97747.25;5095341;28;19931;-81
2022/08/15 02:23:31;;;;;;;;;;;;;;;20.12;100.00;97738.44;5078454;28;19924;-81
2022/08/15 02:25:58;;;;;;;;;;;;;;;20.65;100.00;97741.63;5094866;28;19924;-81
2022/08/15 02:28:25;;;;;;;;;;;;;;;20.77;100.00;97731.00;5095467;28;19928;-82
2022/08/15 02:30:55;;;;;;;;;;;;;;;20.63;100.00;97726.44;5095361;28;19974;-81
2022/08/15 02:33:23;;;;;;;;;;;;;;;20.57;100.00;97729.28;5078406;28;20314;-81
2022/08/15 02:35:51;;;;;;;;;;;;;;;20.58;100.00;97718.72;5078169;28;19928;-81
2022/08/15 02:38:18;;;;;;;;;;;;;;;20.02;100.00;97711.66;5095166;28;19924;-82
2022/08/15 02:40:48;;;;;;;;;;;;;;;19.62;100.00;97721.50;5078378;28;20393;-81
2022/08/15 02:43:18;;;;;;;;;;;;;;;20.02;100.00;97709.59;5094913;28;20409;-82
2022/08/15 02:45:47;;;;;;;;;;;;;;;19.26;100.00;97720.47;5094775;28;19924;-81
2022/08/15 02:48:18;;;;;;;;;;;;;;;19.18;100.00;97712.97;5094847;28;19924;-81
2022/08/15 02:50:46;;;;;;;;;;;;;;;19.80;100.00;97711.69;5094958;28;19924;-82
2022/08/15 02:53:16;;;;;;;;;;;;;;;19.87;100.00;97711.97;5077744;28;20321;-81
2022/08/15 02:55:45;;;;;;;;;;;;;;;20.15;100.00;97714.75;5077691;28;19924;-81
2022/08/15 02:58:13;;;;;;;;;;;;;;;20.31;100.00;97716.78;5094667;28;19923;-82
2022/08/15 03:00:42;;;;;;;;;;;;;;;20.39;100.00;97707.19;5094269;28;19931;-81
2022/08/15 03:03:12;;;;;;;;;;;;;;;20.22;100.00;97709.31;5077891;28;19924;-81
2022/08/15 03:05:44;;;;;;;;;;;;;;;20.28;100.00;97706.47;5094452;28;19927;-81
2022/08/15 03:08:16;;;;;;;;;;;;;;;20.40;100.00;97697.38;5095774;28;19975;-81
2022/08/15 03:10:55;;;;;;;;;;;;;;;20.07;100.00;97705.22;5078911;28;19935;-81
2022/08/15 03:13:31;;;;;;;;;;;;;;;19.92;100.00;97701.91;5077953;28;20068;-81
2022/08/15 03:16:02;;;;;;;;;;;;;;;19.28;100.00;97705.81;5094492;28;19924;-81
2022/08/15 03:18:33;;;;;;;;;;;;;;;19.12;100.00;97704.50;5094251;28;19969;-81
2022/08/15 03:21:07;;;;;;;;;;;;;;;19.12;100.00;97704.50;5077275;28;19924;-81
2022/08/15 03:23:35;;;;;;;;;;;;;;;19.56;100.00;97693.19;5077578;28;20018;-81
2022/08/15 03:26:03;;;;;;;;;;;;;;;19.62;100.00;97696.78;5077255;28;19931;-81
2022/08/15 03:28:32;;;;;;;;;;;;;;;20.04;100.00;97694.91;5077074;28;19924;-81
2022/08/15 03:31:06;;;;;;;;;;;;;;;19.73;100.00;97685.41;5076824;28;20352;-81
2022/08/15 03:33:35;;;;;;;;;;;;;;;19.76;100.00;97677.97;5094139;28;19976;-81
2022/08/15 03:36:03;;;;;;;;;;;;;;;19.86;100.00;97679.22;5093982;28;19948;-81
2022/08/15 03:38:30;;;;;;;;;;;;;;;19.69;100.00;97676.44;5076427;28;20432;-81
2022/08/15 03:40:58;;;;;;;;;;;;;;;20.06;100.00;97678.13;5093582;28;19924;-81
2022/08/15 03:43:28;;;;;;;;;;;;;;;19.79;100.00;97670.47;5076713;28;19930;-81
2022/08/15 03:45:56;;;;;;;;;;;;;;;19.27;100.00;97670.28;5076693;28;20343;-81
2022/08/15 03:48:29;;;;;;;;;;;;;;;19.42;100.00;97665.91;5060092;28;19928;-81
2022/08/15 03:50:58;;;;;;;;;;;;;;;19.73;100.00;97666.88;5093734;28;19924;-81
2022/08/15 03:53:29;;;;;;;;;;;;;;;20.14;100.00;97659.34;5060693;28;19924;-81
2022/08/15 03:55:59;;;;;;;;;;;;;;;20.33;100.00;97660.28;5077015;28;19977;-81
2022/08/15 03:58:31;;;;;;;;;;;;;;;20.38;100.00;97654.59;5093340;28;19960;-81
2022/08/15 04:00:59;;;;;;;;;;;;;;;20.36;100.00;97650.72;5093568;28;19924;-82
2022/08/15 04:03:31;;;;;;;;;;;;;;;20.35;100.00;97643.50;5093369;28;19924;-81
2022/08/15 04:06:00;;;;;;;;;;;;;;;20.01;100.00;97651.34;5093448;28;19961;-81
2022/08/15 04:08:30;;;;;;;;;;;;;;;20.13;100.00;97643.63;5076618;28;19981;-81
2022/08/15 04:11:00;;;;;;;;;;;;;;;20.42;100.00;97648.63;5093618;28;20010;-81
2022/08/15 04:13:28;;;;;;;;;;;;;;;20.63;100.00;97649.81;5093192;28;20417;-82
2022/08/15 04:15:57;;;;;;;;;;;;;;;20.54;100.00;97638.78;5093283;28;19928;-82
2022/08/15 04:18:25;;;;;;;;;;;;;;;20.58;100.00;97644.94;5093345;28;19924;-82
2022/08/15 04:20:54;;;;;;;;;;;;;;;19.60;100.00;97647.59;5093282;28;19924;-81
2022/08/15 04:23:22;;;;;;;;;;;;;;;19.95;100.00;97649.84;5076090;28;19925;-81
2022/08/15 04:25:49;;;;;;;;;;;;;;;20.00;100.00;97637.69;5059396;28;20023;-81
2022/08/15 04:28:18;;;;;;;;;;;;;;;20.15;100.00;97632.50;5092875;28;19971;-81
2022/08/15 04:30:46;;;;;;;;;;;;;;;20.22;100.00;97632.72;5093060;28;19924;-81
2022/08/15 04:33:24;;;;;;;;;;;;;;;19.70;100.00;97629.03;5076327;28;20252;-81
2022/08/15 04:36:02;;;;;;;;;;;;;;;19.80;100.00;97633.13;5059998;28;19969;-81
2022/08/15 04:38:32;;;;;;;;;;;;;;;20.10;100.00;97628.38;5093193;28;19930;-82
2022/08/15 04:41:01;;;;;;;;;;;;;;;19.81;100.00;97625.41;5092804;28;19931;-82
2022/08/15 04:43:30;;;;;;;;;;;;;;;19.88;100.00;97630.53;5092978;28;20022;-81
2022/08/15 04:45:58;;;;;;;;;;;;;;;19.88;100.00;97625.63;5093059;28;19924;-82
2022/08/15 04:48:25;;;;;;;;;;;;;;;19.88;100.00;97616.34;5094024;28;20267;-81
2022/08/15 04:50:53;;;;;;;;;;;;;;;19.64;100.00;97620.53;5097140;28;20022;-82
2022/08/15 04:53:24;;;;;;;;;;;;;;;19.76;100.00;97609.97;5080969;28;20306;-82
2022/08/15 04:55:53;;;;;;;;;;;;;;;18.96;100.00;97623.16;5080049;28;19924;-82
2022/08/15 04:58:20;;;;;;;;;;;;;;;18.72;100.00;97620.03;5080457;28;20396;-82
2022/08/15 05:00:54;;;;;;;;;;;;;;;19.23;100.00;97619.56;5096983;28;19974;-82
2022/08/15 05:03:29;;;;;;;;;;;;;;;19.46;100.00;97611.84;5096937;28;19924;-81
2022/08/15 05:05:59;;;;;;;;;;;;;;;19.52;100.00;97607.69;5096870;28;19973;-82
2022/08/15 05:08:28;;;;;;;;;;;;;;;19.59;100.00;97610.00;5062922;28;20360;-82
2022/08/15 05:11:00;;;;;;;;;;;;;;;19.91;100.00;97604.75;5096442;28;20028;-82
2022/08/15 05:13:29;;;;;;;;;;;;;;;19.89;100.00;97600.91;5096763;28;19924;-82
2022/08/15 05:15:58;;;;;;;;;;;;;;;19.82;100.00;97601.44;5095149;28;19931;-82
2022/08/15 05:18:29;;;;;;;;;;;;;;;19.98;100.00;97614.78;5079761;28;20014;-82
2022/08/15 05:20:57;;;;;;;;;;;;;;;20.07;100.00;97611.66;5079604;28;20022;-82
2022/08/15 05:23:24;;;;;;;;;;;;;;;19.40;100.00;97622.41;5096280;28;19976;-82
2022/08/15 05:25:53;;;;;;;;;;;;;;;19.19;100.00;97636.03;5097004;28;20018;-82
2022/08/15 05:28:22;;;;;;;;;;;;;;;19.73;100.00;97637.25;5096681;28;19977;-82
2022/08/15 05:30:50;;;;;;;;;;;;;;;20.16;100.00;97625.56;5096420;28;20274;-82
2022/08/15 05:33:19;;;;;;;;;;;;;;;20.51;100.00;97611.44;5096439;28;19924;-82
2022/08/15 05:35:49;;;;;;;;;;;;;;;20.66;100.00;97611.88;5096487;28;20001;-82
2022/08/15 05:38:18;;;;;;;;;;;;;;;19.07;100.00;97617.50;5096350;28;19924;-82
2022/08/15 05:41:03;;;;;;;;;;;;;;;18.67;100.00;97623.66;5078949;28;19924;-81
2022/08/15 05:43:40;;;;;;;;;;;;;;;19.91;100.00;97633.09;5096092;28;19996;-82
2022/08/15 05:46:16;;;;;;;;;;;;;;;20.18;100.00;97622.97;5096173;28;19924;-82
2022/08/15 05:48:44;;;;;;;;;;;;;;;20.42;100.00;97625.94;5079446;28;19924;-82
2022/08/15 05:51:17;;;;;;;;;;;;;;;20.46;100.00;97617.94;5096132;28;19973;-82
2022/08/15 05:53:58;;;;;;;;;;;;;;;20.52;100.00;97624.34;5095960;28;19931;-82
2022/08/15 05:56:43;;;;;;;;;;;;;;;20.58;100.00;97616.56;5078821;28;20387;-82
2022/08/15 05:59:13;;;;;;;;;;;;;;;21.18;100.00;97618.22;5079030;28;19931;-82
2022/08/15 06:01:58;;;;;;;;;;;;;;;21.46;100.00;97621.59;5061281;28;19924;-81
2022/08/15 06:04:36;;;;;;;;;;;;;;;21.63;100.00;97615.75;5095442;28;19928;-82
2022/08/15 06:07:07;;;;;;;;;;;;;;;21.52;100.00;97630.84;5095685;28;20022;-82
2022/08/15 06:09:38;;;;;;;;;;;;;;;21.27;100.00;97626.41;5094949;28;19931;-81
2022/08/15 06:12:12;;;;;;;;;;;;;;;21.19;100.00;97623.38;5078252;28;20357;-81
2022/08/15 06:14:44;;;;;;;;;;;;;;;21.68;100.00;97631.94;5078461;28;19924;-81
2022/08/15 06:17:17;;;;;;;;;;;;;;;21.69;100.00;97628.56;5078889;28;19935;-81
2022/08/15 06:19:48;;;;;;;;;;;;;;;21.14;100.00;97640.47;5078371;28;19931;-81
2022/08/15 06:22:22;;;;;;;;;;;;;;;21.57;100.00;97638.50;5095029;28;19924;-82
2022/08/15 06:24:49;;;;;;;;;;;;;;;21.52;100.00;97642.19;5094853;28;20013;-81
2022/08/15 06:27:30;;;;;;;;;;;;;;;21.23;100.00;97638.03;5062035;28;20271;-81
2022/08/15 06:30:19;;;;;;;;;;;;;;;21.47;100.00;97634.47;5077944;28;19974;-81
2022/08/15 06:32:55;;;;;;;;;;;;;;;22.16;100.00;97638.41;5078199;28;19924;-82
2022/08/15 06:35:44;;;;;;;;;;;;;;;22.41;100.00;97631.38;5094845;28;20292;-82
2022/08/15 06:38:18;;;;;;;;;;;;;;;22.61;100.00;97630.09;5077906;28;19989;-82
2022/08/15 06:40:53;;;;;;;;;;;;;;;22.42;100.00;97632.13;5078049;28;20417;-82
2022/08/15 06:43:20;;;;;;;;;;;;;;;22.32;100.00;97633.81;5061403;28;19930;-82
2022/08/15 06:46:03;;;;;;;;;;;;;;;22.57;100.00;97633.25;5063797;28;19964;-82
2022/08/15 06:48:33;;;;;;;;;;;;;;;22.76;100.00;97633.25;5077691;28;19924;-82
2022/08/15 06:51:04;;;;;;;;;;;;;;;22.92;100.00;97620.84;5077859;28;19935;-82
2022/08/15 06:53:31;;;;;;;;;;;;;;;23.25;100.00;97614.63;5060983;28;19970;-82
2022/08/15 06:56:00;;;;;;;;;;;;;;;23.42;100.00;97614.34;5077585;28;19924;-81
2022/08/15 06:58:37;;;;;;;;;;;;;;;23.59;100.00;97612.75;5078456;28;19928;-81
2022/08/15 07:01:24;;;;;;;;;;;;;;;23.72;100.00;97615.59;5061184;28;19930;-81
2022/08/15 07:04:00;;;;;;;;;;;;;;;23.40;100.00;97614.88;5076888;28;19967;-82
2022/08/15 07:06:36;;;;;;;;;;;;;;;23.48;100.00;97617.88;5094126;28;20390;-78
2022/08/15 07:09:24;;;;;;;;;;;;;;;23.59;100.00;97618.44;5093402;28;19924;-78
2022/08/15 07:12:01;;;;;;;;;;;;;;;22.62;100.00;97634.47;5093125;28;19928;-78
2022/08/15 07:14:36;;;;;;;;;;;;;;;22.06;100.00;97634.41;5076954;28;20306;-78
2022/08/15 07:17:17;;;;;;;;;;;;;;;22.57;100.00;97627.56;5094073;28;19928;-78
2022/08/15 07:19:50;;;;;;;;;;;;;;;24.35;100.00;97626.84;5093830;28;19931;-78
2022/08/15 07:22:27;;;;;;;;;;;;;;;25.94;100.00;97618.56;5093689;28;19931;-78
2022/08/15 07:24:55;;;;;;;;;;;;;;;26.36;100.00;97607.78;5091954;28;19927;-78
2022/08/15 07:27:29;;;;;;;;;;;;;;;27.35;100.00;97604.69;5060199;28;20010;-78
2022/08/15 07:30:07;;;;;;;;;;;;;;;28.69;100.00;97596.47;5060516;28;20267;-78
2022/08/15 07:32:38;;;;;;;;;;;;;;;30.09;100.00;97601.63;5076419;28;19924;-78
2022/08/15 07:35:16;;;;;;;;;;;;;;;31.14;100.00;97594.63;5075639;28;20338;-78
2022/08/15 07:37:48;;;;;;;;;;;;;;;32.00;100.00;97595.78;5076162;28;19924;-78
2022/08/15 07:40:18;;;;;;;;;;;;;;;32.51;100.00;97589.63;5093978;28;19924;-78
2022/08/15 07:42:46;;;;;;;;;;;;;;;32.91;100.00;97581.06;5059133;28;20272;-78
2022/08/15 07:45:34;;;;;;;;;;;;;;;32.75;100.00;97584.88;5076311;28;20355;-79
2022/08/15 07:48:09;;;;;;;;;;;;;;;30.75;100.00;97592.84;5059002;28;19931;-79
2022/08/15 07:50:37;;;;;;;;;;;;;;;29.95;100.00;97588.88;5075400;28;19924;-79
2022/08/15 07:53:18;;;;;;;;;;;;;;;29.79;100.00;97591.91;5075795;28;19956;-79
2022/08/15 07:56:16;;;;;;;;;;;;;;;29.55;100.00;97594.81;5076334;28;19924;-79
2022/08/15 07:58:44;;;;;;;;;;;;;;;29.54;100.00;97594.03;5063602;28;19928;-79
2022/08/15 08:01:13;;;;;;;;;;;;;;;29.87;100.00;97591.09;5059589;28;19968;-80
2022/08/15 08:04:15;;;;;;;;;;;;;;;30.08;100.00;97591.47;5076045;28;19924;-81
2022/08/15 08:07:04;;;;;;;;;;;;;;;30.84;100.00;97589.28;5076134;28;20326;-80
2022/08/15 08:09:34;;;;;;;;;;;;;;;31.74;100.00;97581.38;5109832;28;19978;-81
2022/08/15 08:12:07;;;;;;;;;;;;;;;32.14;100.00;97582.41;5076011;28;19924;-81
2022/08/15 08:14:47;;;;;;;;;;;;;;;32.15;100.00;97589.72;5076167;28;19928;-80
2022/08/15 08:17:20;;;;;;;;;;;;;;;31.50;100.00;97591.00;5058366;28;19924;-80
2022/08/15 08:19:58;;;;;;;;;;;;;;;30.34;100.00;97596.59;5055895;28;19982;-81
2022/08/15 08:22:50;;;;;;;;;;;;;;;29.82;100.00;97595.75;5089374;28;20082;-80
2022/08/15 08:25:40;;;;;;;;;;;;;;;29.07;100.00;97599.16;5055797;28;20013;-81
2022/08/15 08:28:50;;;;;;;;;;;;;;;28.83;100.00;97606.34;5042714;28;20015;-80
2022/08/15 08:31:30;;;;;;;;;;;;;;;28.48;100.00;97609.56;4998659;28;19925;-80
2022/08/15 08:34:11;;;;;;;;;;;;;;;27.94;100.00;97608.91;5031463;28;20003;-79
2022/08/15 08:36:59;;;;;;;;;;;;;;;27.98;100.00;97614.25;5014805;28;20375;-79
2022/08/15 08:39:29;;;;;;;;;;;;;;;28.06;100.00;97612.16;5031534;28;19932;-81
2022/08/15 08:42:14;;;;;;;;;;;;;;;27.79;100.00;97620.34;5031271;28;19925;-77
2022/08/15 08:44:59;;;;;;;;;;;;;;;27.40;100.00;97628.78;5031418;28;19925;-78
2022/08/15 08:47:38;;;;;;;;;;;;;;;27.05;100.00;97638.25;5031552;28;20035;-79
2022/08/15 08:50:21;;;;;;;;;;;;;;;26.81;100.00;97650.94;5031383;28;19944;-79
2022/08/15 08:53:08;;;;;;;;;;;;;;;26.04;100.00;97665.41;5031458;28;20019;-79
2022/08/15 08:56:00;;;;;;;;;;;;;;;25.81;100.00;97678.72;5012036;28;19925;-78
2022/08/15 08:58:36;;;;;;;;;;;;;;;25.33;100.00;97670.88;5030669;28;19925;-79
2022/08/15 09:01:09;;;;;;;;;;;;;;;25.06;100.00;97666.56;5013563;28;19925;-79
2022/08/15 09:03:40;;;;;;;;;;;;;;;24.73;100.00;97673.78;5013282;28;19932;-79
2022/08/15 09:06:10;;;;;;;;;;;;;;;24.40;100.00;97662.28;5030465;28;19925;-79
2022/08/15 09:08:38;;;;;;;;;;;;;;;25.02;100.00;97657.56;5055821;28;20379;-79
2022/08/15 09:11:08;;;;;;;;;;;;;;;24.16;100.00;97656.78;5071166;28;20023;-79
2022/08/15 09:13:38;;;;;;;;;;;;;;;24.95;100.00;97657.47;5072387;28;19928;-79
2022/08/15 09:16:14;;;;;;;;;;;;;;;24.20;100.00;97665.81;5071197;28;20295;-79
2022/08/15 09:18:46;;;;;;;;;;;;;;;24.29;100.00;97674.69;5071164;28;19924;-79
2022/08/15 09:21:13;;;;;;;;;;;;;;;24.34;100.00;97670.19;5072392;28;20011;-79
2022/08/15 09:23:43;;;;;;;;;;;;;;;24.57;100.00;97674.09;5070901;28;19925;-79
2022/08/15 09:26:10;;;;;;;;;;;;;;;24.64;100.00;97670.59;5072121;28;19959;-79
2022/08/15 09:28:38;;;;;;;;;;;;;;;25.03;100.00;97672.59;5072375;28;19947;-79
2022/08/15 09:31:10;;;;;;;;;;;;;;;24.13;100.00;97677.84;5071927;28;19924;-79
2022/08/15 09:33:37;;;;;;;;;;;;;;;24.90;100.00;97681.97;5070874;28;19924;-79
2022/08/15 09:36:13;;;;;;;;;;;;;;;25.05;100.00;97681.38;5073958;28;19978;-79
2022/08/15 09:38:40;;;;;;;;;;;;;;;25.10;100.00;97680.50;5075844;28;19924;-79
2022/08/15 09:41:11;;;;;;;;;;;;;;;24.46;100.00;97695.09;5074450;28;19932;-79
2022/08/15 09:44:00;;;;;;;;;;;;;;;24.57;100.00;97699.78;5074525;28;19925;-79
2022/08/15 09:46:46;;;;;;;;;;;;;;;25.16;100.00;97704.75;5058204;28;19924;-79
2022/08/15 09:49:19;;;;;;;;;;;;;;;24.53;100.00;97702.22;5075594;28;19986;-79
2022/08/15 09:51:57;;;;;;;;;;;;;;;24.88;100.00;97706.72;5075430;28;19931;-79
2022/08/15 09:54:26;;;;;;;;;;;;;;;24.34;100.00;97708.03;5075489;28;19955;-79
2022/08/15 09:57:12;;;;;;;;;;;;;;;24.50;100.00;97712.66;5074242;28;19936;-79
2022/08/15 09:59:39;;;;;;;;;;;;;;;24.21;100.00;97718.69;5075247;28;19978;-79
2022/08/15 10:02:23;;;;;;;;;;;;;;;24.91;100.00;97712.09;5075016;28;19924;-79
2022/08/15 10:04:55;;;;;;;;;;;;;;;24.94;100.00;97727.34;5075327;28;19931;-79
2022/08/15 10:07:31;;;;;;;;;;;;;;;24.90;100.00;97721.22;5075417;28;19929;-79
2022/08/15 10:09:58;;;;;;;;;;;;;;;25.22;100.00;97716.81;5073983;28;19924;-79
2022/08/15 10:12:25;;;;;;;;;;;;;;;25.15;100.00;97719.59;5075195;28;19931;-79
2022/08/15 10:14:52;;;;;;;;;;;;;;;26.08;100.00;97719.44;5073526;28;20021;-79
2022/08/15 10:17:22;;;;;;;;;;;;;;;26.25;100.00;97709.06;5075173;28;19929;-79
2022/08/15 10:19:49;;;;;;;;;;;;;;;25.97;100.00;97719.69;5073817;28;20011;-79
2022/08/15 10:22:22;;;;;;;;;;;;;;;26.22;100.00;97718.78;5073561;28;20364;-79
2022/08/15 10:25:09;;;;;;;;;;;;;;;26.16;100.00;97729.59;5074963;28;19924;-79
2022/08/15 10:27:57;;;;;;;;;;;;;;;26.39;100.00;97739.13;5073812;28;20142;-79
2022/08/15 10:30:25;;;;;;;;;;;;;;;26.66;100.00;97730.34;5074430;28;19925;-79
2022/08/15 10:32:53;;;;;;;;;;;;;;;26.76;100.00;97732.13;5073652;28;19932;-79
2022/08/15 10:35:27;;;;;;;;;;;;;;;26.54;100.00;97738.44;5073539;28;19925;-79
2022/08/15 10:37:57;;;;;;;;;;;;;;;26.88;100.00;97744.03;5074591;28;19928;-79
2022/08/15 10:40:30;;;;;;;;;;;;;;;27.12;100.00;97732.09;5074732;28;19960;-79
2022/08/15 10:43:17;;;;;;;;;;;;;;;27.67;100.00;97727.50;5074389;28;19954;-79
2022/08/15 10:46:03;;;;;;;;;;;;;;;27.19;100.00;97729.25;5074300;28;20398;-79
2022/08/15 10:48:34;;;;;;;;;;;;;;;27.10;100.00;97743.34;5074461;28;19931;-79
2022/08/15 10:51:07;;;;;;;;;;;;;;;27.78;100.00;97732.84;5073324;28;20332;-79
2022/08/15 10:53:47;;;;;;;;;;;;;;;28.16;100.00;97721.44;5073317;28;19924;-79
2022/08/15 10:56:18;;;;;;;;;;;;;;;27.50;100.00;97727.25;5073159;28;19932;-79
2022/08/15 10:58:46;;;;;;;;;;;;;;;27.46;100.00;97724.75;5073894;28;19931;-79
2022/08/15 11:01:20;;;;;;;;;;;;;;;27.48;100.00;97721.31;5072852;28;19928;-79
2022/08/15 11:03:53;;;;;;;;;;;;;;;26.33;100.00;97727.06;5072929;28;20371;-79
2022/08/15 11:06:22;;;;;;;;;;;;;;;26.34;100.00;97725.72;5056618;28;19925;-79
2022/08/15 11:08:55;;;;;;;;;;;;;;;27.51;100.00;97720.19;5072869;28;19994;-79
2022/08/15 11:11:24;;;;;;;;;;;;;;;28.09;100.00;97728.69;5073955;28;19930;-79
2022/08/15 11:13:53;;;;;;;;;;;;;;;28.18;100.00;97725.25;5072340;28;20402;-79
2022/08/15 11:16:31;;;;;;;;;;;;;;;27.46;100.00;97719.03;5073945;28;19924;-79
2022/08/15 11:19:00;;;;;;;;;;;;;;;28.02;100.00;97724.47;5072829;28;19931;-79
2022/08/15 11:21:30;;;;;;;;;;;;;;;28.18;100.00;97731.00;5073734;28;20370;-79
2022/08/15 11:24:01;;;;;;;;;;;;;;;27.99;100.00;97727.75;5072483;28;19924;-79
2022/08/15 11:26:31;;;;;;;;;;;;;;;27.89;100.00;97726.78;5072314;28;20472;-79
2022/08/15 11:29:11;;;;;;;;;;;;;;;28.50;100.00;97716.03;5073596;28;20407;-79
2022/08/15 11:31:42;;;;;;;;;;;;;;;27.71;100.00;97717.19;5073612;28;20342;-79
2022/08/15 11:34:32;;;;;;;;;;;;;;;27.35;100.00;97718.63;5056112;28;20367;-79
2022/08/15 11:37:04;;;;;;;;;;;;;;;26.51;100.00;97715.91;5072633;28;19931;-79
2022/08/15 11:39:31;;;;;;;;;;;;;;;26.39;100.00;97716.22;5073711;28;19928;-79
2022/08/15 11:42:02;;;;;;;;;;;;;;;25.72;100.00;97739.31;5055349;28;19931;-79
2022/08/15 11:44:45;;;;;;;;;;;;;;;26.64;100.00;97741.59;5071930;28;19931;-78
2022/08/15 11:47:13;;;;;;;;;;;;;;;26.52;100.00;97741.13;5073510;28;20315;-79
2022/08/15 11:49:51;;;;;;;;;;;;;;;27.15;100.00;97754.66;5105914;28;19985;-79
2022/08/15 11:52:23;;;;;;;;;;;;;;;27.10;100.00;97763.41;5072169;28;20024;-79
2022/08/15 11:55:09;;;;;;;;;;;;;;;26.63;100.00;97754.41;5073180;28;19963;-79
2022/08/15 11:57:47;;;;;;;;;;;;;;;26.19;100.00;97759.97;5072722;28;19970;-79
2022/08/15 12:00:22;;;;;;;;;;;;;;;26.17;100.00;97774.06;5071817;28;20435;-79
2022/08/15 12:02:49;;;;;;;;;;;;;;;27.02;100.00;97774.09;5071815;28;19924;-79
2022/08/15 12:05:30;;;;;;;;;;;;;;;26.86;100.00;97793.31;5071883;28;19932;-78
2022/08/15 12:07:59;;;;;;;;;;;;;;;27.27;100.00;97781.69;5071950;28;19924;-79
2022/08/15 12:10:30;;;;;;;;;;;;;;;27.26;100.00;97773.66;5073024;28;19924;-79
2022/08/15 12:12:57;;;;;;;;;;;;;;;27.85;100.00;97772.28;5071273;28;19924;-79
2022/08/15 12:15:30;;;;;;;;;;;;;;;28.04;100.00;97779.22;5072795;28;20449;-79
2022/08/15 12:18:17;;;;;;;;;;;;;;;27.81;100.00;97771.88;5073031;28;19928;-79
2022/08/15 12:20:47;;;;;;;;;;;;;;;27.54;100.00;97759.19;5071808;28;20031;-79
2022/08/15 12:23:21;;;;;;;;;;;;;;;27.85;100.00;97747.19;5071948;28;20280;-79
2022/08/15 12:25:55;;;;;;;;;;;;;;;26.86;100.00;97750.31;5072370;28;20429;-79
2022/08/15 12:28:23;;;;;;;;;;;;;;;27.11;100.00;97759.22;5088687;28;19925;-79
2022/08/15 12:30:56;;;;;;;;;;;;;;;26.39;100.00;97762.03;5072931;28;20342;-79
2022/08/15 12:33:24;;;;;;;;;;;;;;;26.45;100.00;97764.72;5072774;28;19925;-79
2022/08/15 12:35:53;;;;;;;;;;;;;;;26.76;100.00;97765.72;5072829;28;19924;-79
2022/08/15 12:38:20;;;;;;;;;;;;;;;26.92;100.00;97765.25;5071740;28;19925;-79
2022/08/15 12:40:50;;;;;;;;;;;;;;;26.29;100.00;97768.84;5072557;28;19928;-79
2022/08/15 12:43:23;;;;;;;;;;;;;;;27.01;100.00;97763.94;5071514;28;19924;-78
2022/08/15 12:45:50;;;;;;;;;;;;;;;26.28;100.00;97767.28;5071534;28;20292;-79
2022/08/15 12:48:22;;;;;;;;;;;;;;;26.85;100.00;97768.84;5072782;28;20031;-78
2022/08/15 12:50:49;;;;;;;;;;;;;;;27.09;100.00;97764.75;5072621;28;19925;-79
2022/08/15 12:53:16;;;;;;;;;;;;;;;27.20;100.00;97778.75;5072525;28;19932;-79
2022/08/15 12:55:45;;;;;;;;;;;;;;;27.08;100.00;97774.69;5071104;28;19925;-79
2022/08/15 12:58:12;;;;;;;;;;;;;;;27.29;100.00;97781.13;5071444;28;19931;-79
2022/08/15 13:00:40;;;;;;;;;;;;;;;26.70;100.00;97779.44;5071482;28;19932;-79
2022/08/15 13:03:08;;;;;;;;;;;;;;;26.53;100.00;97788.47;5072465;28;19931;-79
2022/08/15 13:05:36;;;;;;;;;;;;;;;25.70;100.00;97779.16;5072258;28;20272;-79
2022/08/15 13:08:03;;;;;;;;;;;;;;;26.13;100.00;97790.84;5072412;28;20380;-79